Time;durP1;ratioP1;P1;durP2;ratioP2;P2;SDS_P1;SDS_P2;PMS_P1;PMS_P2;Temp;Humidity;BMP_temperature;BMP_pressure;BME280_temperature;BME280_humidity;BME280_pressure;Samples;Min_cycle;Max_cycle;Signal;HPM_P1;HPM_P2
2022/07/03 00:01:51;;;;;;;4.43;4.10;;;17.80;99.90;;;;;;5072954;28;20947;-58
2022/07/03 00:04:20;;;;;;;4.17;3.90;;;17.80;99.90;;;;;;5073007;28;20459;-59
2022/07/03 00:06:46;;;;;;;4.80;4.40;;;17.60;99.90;;;;;;5073212;28;20451;-58
2022/07/03 00:09:14;;;;;;;4.90;4.50;;;17.70;99.90;;;;;;5073295;28;20450;-58
2022/07/03 00:11:40;;;;;;;5.57;5.00;;;17.60;99.90;;;;;;5072735;28;20918;-58
2022/07/03 00:14:06;;;;;;;4.27;4.00;;;17.60;99.90;;;;;;5072767;28;20493;-58
2022/07/03 00:16:33;;;;;;;5.80;5.40;;;17.60;99.90;;;;;;5072394;28;20447;-58
2022/07/03 00:18:59;;;;;;;5.33;5.03;;;17.40;99.90;;;;;;5072632;28;20454;-59
2022/07/03 00:21:31;;;;;;;4.97;4.57;;;17.50;99.90;;;;;;5072946;28;20448;-58
2022/07/03 00:24:03;;;;;;;5.07;4.67;;;17.60;99.90;;;;;;5072965;28;20929;-57
2022/07/03 00:26:33;;;;;;;4.27;3.97;;;17.70;99.90;;;;;;5072758;28;20471;-59
2022/07/03 00:29:01;;;;;;;4.40;4.20;;;17.80;99.90;;;;;;5072689;28;20926;-58
2022/07/03 00:31:30;;;;;;;5.50;5.10;;;17.60;99.90;;;;;;5072864;28;20444;-59
2022/07/03 00:33:58;;;;;;;7.23;5.10;;;17.60;99.90;;;;;;5072554;28;21075;-56
2022/07/03 00:36:27;;;;;;;5.20;4.90;;;17.50;99.90;;;;;;5072809;28;20455;-58
2022/07/03 00:38:54;;;;;;;6.83;4.67;;;17.50;99.90;;;;;;5072755;28;20455;-58
2022/07/03 00:41:26;;;;;;;5.40;5.00;;;17.60;99.90;;;;;;5072689;28;20453;-58
2022/07/03 00:43:53;;;;;;;4.73;4.43;;;17.60;99.90;;;;;;5072511;28;20443;-57
2022/07/03 00:46:22;;;;;;;5.00;4.70;;;17.50;99.90;;;;;;5072790;28;20469;-59
2022/07/03 00:48:50;;;;;;;4.50;4.10;;;17.30;99.90;;;;;;5072452;28;21005;-59
2022/07/03 00:51:21;;;;;;;5.10;4.60;;;17.30;99.90;;;;;;5072612;28;20474;-59
2022/07/03 00:53:51;;;;;;;5.23;4.73;;;17.40;99.90;;;;;;5072887;28;20506;-58
2022/07/03 00:56:19;;;;;;;4.37;4.00;;;17.20;99.90;;;;;;5072331;28;20820;-58
2022/07/03 00:58:46;;;;;;;4.47;4.10;;;17.10;99.90;;;;;;5072861;28;20454;-57
2022/07/03 01:01:19;;;;;;;5.70;4.70;;;17.20;99.90;;;;;;5072551;28;20559;-58
2022/07/03 01:03:46;;;;;;;5.53;5.10;;;17.10;99.90;;;;;;5072555;28;20447;-58
2022/07/03 01:06:15;;;;;;;5.13;4.73;;;17.00;99.90;;;;;;5072462;28;20546;-58
2022/07/03 01:08:44;;;;;;;4.83;4.53;;;16.90;99.90;;;;;;5072358;28;20447;-58
2022/07/03 01:11:22;;;;;;;4.37;4.07;;;16.80;99.90;;;;;;5072294;28;20455;-58
2022/07/03 01:14:01;;;;;;;4.37;4.07;;;17.00;99.90;;;;;;5072423;28;20823;-58
2022/07/03 01:16:34;;;;;;;4.87;4.40;;;17.10;99.90;;;;;;5072410;28;20798;-57
2022/07/03 01:19:18;;;;;;;4.50;4.10;;;17.20;99.90;;;;;;5072256;28;20879;-59
2022/07/03 01:21:58;;;;;;;4.77;4.47;;;17.20;99.90;;;;;;5072444;28;20444;-59
2022/07/03 01:24:44;;;;;;;5.33;4.93;;;17.10;99.90;;;;;;5072299;28;20449;-59
2022/07/03 01:27:18;;;;;;;4.77;4.40;;;17.30;99.90;;;;;;5072172;28;20953;-59
2022/07/03 01:29:52;;;;;;;4.07;3.73;;;17.50;99.90;;;;;;5073788;28;20447;-59
2022/07/03 01:32:23;;;;;;;5.30;4.87;;;17.50;99.90;;;;;;5075838;28;20469;-59
2022/07/03 01:34:53;;;;;;;5.73;5.23;;;17.60;99.90;;;;;;5075989;28;20483;-57
2022/07/03 01:37:22;;;;;;;5.13;4.63;;;17.70;99.90;;;;;;5075690;28;20447;-59
2022/07/03 01:39:53;;;;;;;6.83;5.20;;;17.80;99.90;;;;;;5075564;28;20440;-57
2022/07/03 01:42:24;;;;;;;6.17;4.53;;;17.90;99.90;;;;;;5075483;28;20475;-58
2022/07/03 01:44:52;;;;;;;4.50;4.30;;;17.80;99.90;;;;;;5075710;28;20455;-58
2022/07/03 01:47:19;;;;;;;4.93;4.43;;;17.80;99.90;;;;;;5075546;28;20477;-59
2022/07/03 01:49:48;;;;;;;6.53;4.70;;;17.80;99.90;;;;;;5075472;28;20447;-59
2022/07/03 01:52:16;;;;;;;5.70;4.40;;;17.90;99.90;;;;;;5075421;28;20806;-59
2022/07/03 01:54:45;;;;;;;4.90;4.60;;;17.90;99.90;;;;;;5075092;28;20479;-58
2022/07/03 01:57:12;;;;;;;4.57;4.20;;;17.80;99.90;;;;;;5075187;28;20475;-59
2022/07/03 01:59:40;;;;;;;4.97;4.67;;;17.80;99.90;;;;;;5075372;28;20483;-58
2022/07/03 02:02:14;;;;;;;4.70;4.50;;;17.80;99.90;;;;;;5075450;28;20966;-58
2022/07/03 02:04:55;;;;;;;4.50;4.20;;;17.80;99.90;;;;;;5075158;28;20453;-58
2022/07/03 02:07:27;;;;;;;5.00;4.70;;;17.80;99.90;;;;;;5075165;28;20813;-58
2022/07/03 02:10:04;;;;;;;4.30;4.10;;;17.80;99.90;;;;;;5075236;28;20452;-58
2022/07/03 02:12:39;;;;;;;4.80;4.50;;;17.80;99.90;;;;;;5075121;28;20447;-59
2022/07/03 02:15:09;;;;;;;5.23;4.77;;;17.80;99.90;;;;;;5074982;28;20489;-58
2022/07/03 02:17:38;;;;;;;4.63;4.30;;;17.80;99.90;;;;;;5074800;28;20877;-59
2022/07/03 02:20:08;;;;;;;4.50;4.20;;;17.80;99.90;;;;;;5075005;28;20448;-57
2022/07/03 02:22:37;;;;;;;4.87;4.57;;;17.80;99.90;;;;;;5074922;28;20458;-58
2022/07/03 02:25:06;;;;;;;4.83;4.50;;;17.80;99.90;;;;;;5074842;28;20457;-59
2022/07/03 02:27:39;;;;;;;4.90;4.60;;;17.70;99.90;;;;;;5074754;28;20798;-59
2022/07/03 02:30:08;;;;;;;7.73;4.00;;;17.70;99.90;;;;;;5074834;28;20963;-57
2022/07/03 02:32:41;;;;;;;4.93;4.53;;;17.70;99.90;;;;;;5074845;28;20534;-58
2022/07/03 02:35:11;;;;;;;5.80;4.80;;;17.70;99.90;;;;;;5074656;28;20490;-59
2022/07/03 02:37:44;;;;;;;4.87;4.57;;;17.60;99.90;;;;;;5074598;28;20538;-59
2022/07/03 02:40:22;;;;;;;4.73;4.30;;;17.40;99.90;;;;;;5074231;28;20466;-58
2022/07/03 02:42:56;;;;;;;4.53;4.23;;;17.20;99.90;;;;;;5074315;28;20444;-59
2022/07/03 02:45:30;;;;;;;4.50;4.13;;;17.10;99.90;;;;;;5074522;28;20455;-58
2022/07/03 02:48:03;;;;;;;4.57;4.27;;;17.10;99.90;;;;;;5074408;28;20456;-59
2022/07/03 02:50:32;;;;;;;4.47;4.07;;;17.00;99.90;;;;;;5074246;28;20455;-59
2022/07/03 02:53:05;;;;;;;4.93;4.63;;;17.10;99.90;;;;;;5074096;28;20447;-59
2022/07/03 02:55:41;;;;;;;4.67;4.37;;;17.10;99.90;;;;;;5074292;28;20491;-59
2022/07/03 02:58:37;;;;;;;5.00;4.60;;;17.10;99.90;;;;;;5074164;28;20830;-58
2022/07/03 03:01:13;;;;;;;4.70;4.40;;;17.10;99.90;;;;;;5070483;28;20505;-59
2022/07/03 03:03:45;;;;;;;4.87;4.63;;;17.20;99.90;;;;;;5074175;28;20942;-59
2022/07/03 03:06:14;;;;;;;4.30;4.10;;;17.20;99.90;;;;;;5074021;28;20461;-57
2022/07/03 03:08:47;;;;;;;5.00;4.70;;;17.30;99.90;;;;;;5073939;28;20451;-58
2022/07/03 03:11:24;;;;;;;4.70;4.40;;;16.90;99.90;;;;;;5073881;28;20805;-58
2022/07/03 03:13:55;;;;;;;4.73;4.43;;;16.80;99.90;;;;;;5073624;28;21012;-58
2022/07/03 03:16:23;;;;;;;5.13;4.73;;;16.80;99.90;;;;;;5074152;28;20448;-58
2022/07/03 03:18:50;;;;;;;5.20;4.33;;;16.90;99.90;;;;;;5073787;28;20444;-57
2022/07/03 03:21:18;;;;;;;5.37;4.90;;;17.00;99.90;;;;;;5073700;28;20443;-59
2022/07/03 03:23:48;;;;;;;5.47;5.00;;;17.10;99.90;;;;;;5073562;28;20444;-58
2022/07/03 03:26:15;;;;;;;5.37;4.97;;;17.20;99.90;;;;;;5073756;28;20542;-58
2022/07/03 03:28:42;;;;;;;5.30;4.87;;;17.30;99.90;;;;;;5073385;28;20449;-58
2022/07/03 03:31:09;;;;;;;4.93;4.63;;;17.30;99.90;;;;;;5073496;28;20469;-57
2022/07/03 03:33:40;;;;;;;5.37;5.00;;;17.10;99.90;;;;;;5073540;28;20451;-59
2022/07/03 03:36:08;;;;;;;5.27;4.93;;;16.70;99.90;;;;;;5073493;28;20470;-57
2022/07/03 03:38:35;;;;;;;5.40;4.90;;;16.80;99.90;;;;;;5073276;28;20439;-58
2022/07/03 03:41:03;;;;;;;4.50;4.30;;;16.90;99.90;;;;;;5073199;28;20458;-59
2022/07/03 03:43:30;;;;;;;5.97;5.47;;;17.00;99.90;;;;;;5073656;28;20450;-59
2022/07/03 03:45:57;;;;;;;4.60;4.30;;;17.10;99.90;;;;;;5073383;28;20806;-58
2022/07/03 03:48:23;;;;;;;5.47;5.17;;;17.20;99.90;;;;;;5073271;28;20450;-58
2022/07/03 03:50:51;;;;;;;4.67;4.40;;;17.20;99.90;;;;;;5073243;28;20447;-57
2022/07/03 03:53:19;;;;;;;5.10;4.80;;;17.10;99.90;;;;;;5072536;28;20450;-59
2022/07/03 03:56:00;;;;;;;5.07;4.67;;;17.00;99.90;;;;;;5072985;28;20493;-59
2022/07/03 03:58:26;;;;;;;7.53;6.00;;;17.00;99.90;;;;;;5073262;28;20780;-58
2022/07/03 04:00:53;;;;;;;6.07;5.57;;;16.60;99.90;;;;;;5073104;28;20444;-58
2022/07/03 04:03:20;;;;;;;5.40;5.00;;;16.30;99.90;;;;;;5073093;28;20466;-58
2022/07/03 04:05:46;;;;;;;5.87;5.57;;;16.20;99.90;;;;;;5073012;28;20530;-58
2022/07/03 04:08:14;;;;;;;4.93;4.53;;;16.10;99.90;;;;;;5072867;28;20539;-58
2022/07/03 04:10:40;;;;;;;5.80;5.40;;;16.00;99.90;;;;;;5073070;28;20809;-59
2022/07/03 04:13:07;;;;;;;6.03;5.60;;;16.00;99.90;;;;;;5073013;28;20447;-58
2022/07/03 04:15:33;;;;;;;5.07;4.77;;;16.10;99.90;;;;;;5072899;28;20475;-58
2022/07/03 04:18:00;;;;;;;5.70;5.20;;;16.10;99.90;;;;;;5073122;28;20542;-58
2022/07/03 04:20:26;;;;;;;5.03;4.73;;;16.20;99.90;;;;;;5072885;28;20938;-59
2022/07/03 04:22:53;;;;;;;5.33;4.93;;;16.40;99.90;;;;;;5072776;28;20447;-57
2022/07/03 04:25:21;;;;;;;5.27;4.87;;;16.50;99.90;;;;;;5072964;28;20448;-58
2022/07/03 04:27:47;;;;;;;5.07;4.77;;;16.50;99.90;;;;;;5072939;28;20917;-58
2022/07/03 04:30:14;;;;;;;10.50;5.80;;;16.50;99.90;;;;;;5072874;28;20475;-58
2022/07/03 04:32:40;;;;;;;5.10;4.70;;;16.60;99.90;;;;;;5072673;28;20461;-58
2022/07/03 04:35:07;;;;;;;5.00;4.60;;;16.60;99.90;;;;;;5072521;28;20485;-58
2022/07/03 04:37:34;;;;;;;6.50;4.70;;;16.60;99.90;;;;;;5072851;28;20475;-58
2022/07/03 04:40:01;;;;;;;8.20;5.60;;;16.70;99.90;;;;;;5072833;28;20938;-57
2022/07/03 04:42:28;;;;;;;5.60;4.73;;;16.80;99.90;;;;;;5072761;28;20443;-58
2022/07/03 04:44:55;;;;;;;4.93;4.63;;;16.90;99.90;;;;;;5072646;28;20451;-58
2022/07/03 04:47:22;;;;;;;5.33;4.93;;;16.90;99.90;;;;;;5072541;28;20454;-57
2022/07/03 04:49:48;;;;;;;5.67;5.17;;;17.00;99.90;;;;;;5072491;28;20585;-59
2022/07/03 04:52:15;;;;;;;5.33;4.90;;;17.20;99.90;;;;;;5072933;28;20450;-58
2022/07/03 04:54:41;;;;;;;5.30;5.00;;;17.30;99.90;;;;;;5072663;28;20524;-58
2022/07/03 04:57:08;;;;;;;5.63;5.00;;;17.50;99.90;;;;;;5072410;28;20586;-57
2022/07/03 04:59:35;;;;;;;5.50;5.00;;;17.70;99.90;;;;;;5072480;28;20443;-59
2022/07/03 05:02:02;;;;;;;4.30;4.00;;;17.80;99.90;;;;;;5072498;28;20447;-58
2022/07/03 05:04:29;;;;;;;4.97;4.57;;;18.00;99.90;;;;;;5075379;28;20458;-58
2022/07/03 05:06:55;;;;;;;5.20;4.80;;;18.20;99.90;;;;;;5076341;28;20458;-59
2022/07/03 05:09:22;;;;;;;5.33;5.00;;;18.30;99.90;;;;;;5076234;28;20829;-59
2022/07/03 05:11:49;;;;;;;6.10;4.10;;;18.50;99.90;;;;;;5076171;28;20447;-58
2022/07/03 05:14:15;;;;;;;5.17;4.50;;;18.60;99.90;;;;;;5076290;28;20450;-58
2022/07/03 05:16:43;;;;;;;6.17;4.63;;;18.70;99.90;;;;;;5076000;28;20806;-59
2022/07/03 05:19:09;;;;;;;4.60;4.30;;;18.80;99.90;;;;;;5075877;28;20798;-58
2022/07/03 05:21:36;;;;;;;4.07;3.87;;;19.00;99.90;;;;;;5076046;28;20449;-58
2022/07/03 05:24:02;;;;;;;4.57;4.17;;;19.20;99.90;;;;;;5075931;28;20449;-59
2022/07/03 05:26:29;;;;;;;4.80;4.53;;;19.30;99.90;;;;;;5075883;28;20809;-58
2022/07/03 05:28:55;;;;;;;4.40;4.00;;;19.50;99.90;;;;;;5075699;28;20454;-59
2022/07/03 05:31:22;;;;;;;3.90;3.70;;;19.50;99.90;;;;;;5075632;28;20966;-57
2022/07/03 05:33:50;;;;;;;4.63;4.30;;;19.80;99.90;;;;;;5075872;28;20526;-58
2022/07/03 05:36:16;;;;;;;4.37;4.07;;;19.90;99.90;;;;;;5076029;28;20493;-57
2022/07/03 05:41:27;;;;;;;3.90;3.67;;;20.00;99.90;;;;;;5075883;28;20945;-59
2022/07/03 05:43:53;;;;;;;4.03;3.83;;;20.40;99.90;;;;;;5075545;28;20482;-58
2022/07/03 05:46:20;;;;;;;3.70;3.37;;;20.50;99.90;;;;;;5075737;28;20450;-58
2022/07/03 05:48:46;;;;;;;3.80;3.50;;;20.60;99.90;;;;;;5075617;28;20451;-58
2022/07/03 05:51:14;;;;;;;4.73;4.37;;;20.70;99.90;;;;;;5075508;28;20538;-59
2022/07/03 05:53:41;;;;;;;7.83;4.23;;;20.60;99.90;;;;;;5075409;28;20538;-59
2022/07/03 05:56:07;;;;;;;9.50;3.40;;;20.70;99.90;;;;;;5075050;28;20574;-58
2022/07/03 05:58:34;;;;;;;4.50;4.20;;;20.60;99.90;;;;;;5075117;28;20447;-58
2022/07/03 06:01:00;;;;;;;3.50;3.27;;;20.60;99.90;;;;;;5075418;28;20450;-58
2022/07/03 06:03:27;;;;;;;4.97;3.60;;;20.80;99.90;;;;;;5075310;28;20449;-58
2022/07/03 06:05:53;;;;;;;3.60;3.30;;;21.00;99.90;;;;;;5075261;28;20443;-59
2022/07/03 06:08:21;;;;;;;3.77;3.50;;;21.20;99.90;;;;;;5075203;28;20486;-59
2022/07/03 06:10:47;;;;;;;4.47;4.10;;;21.30;99.90;;;;;;5075027;28;20450;-59
2022/07/03 06:13:14;;;;;;;3.40;3.20;;;21.40;99.90;;;;;;5074890;28;20554;-59
2022/07/03 06:15:40;;;;;;;3.03;2.83;;;21.40;99.90;;;;;;5074429;28;20487;-58
2022/07/03 06:18:07;;;;;;;3.50;3.13;;;21.60;99.90;;;;;;5074982;28;20447;-59
2022/07/03 06:20:33;;;;;;;3.23;3.03;;;21.70;99.90;;;;;;5074886;28;20451;-59
2022/07/03 06:23:00;;;;;;;3.90;3.40;;;21.50;99.90;;;;;;5074822;28;20454;-59
2022/07/03 06:25:27;;;;;;;7.50;3.57;;;21.70;99.90;;;;;;5074667;28;20448;-59
2022/07/03 06:27:54;;;;;;;3.27;3.00;;;22.10;99.90;;;;;;5074856;28;20488;-58
2022/07/03 06:30:21;;;;;;;3.37;2.60;;;22.30;99.90;;;;;;5074539;28;20958;-58
2022/07/03 06:32:47;;;;;;;3.27;3.07;;;22.50;99.90;;;;;;5074724;28;20447;-59
2022/07/03 06:35:14;;;;;;;3.10;2.90;;;22.60;99.90;;;;;;5074485;28;20980;-58
2022/07/03 06:37:40;;;;;;;3.37;3.23;;;22.40;99.90;;;;;;5074901;28;20457;-57
2022/07/03 06:40:08;;;;;;;3.43;3.00;;;22.70;99.90;;;;;;5074416;28;20505;-58
2022/07/03 06:42:36;;;;;;;3.07;2.90;;;22.80;99.90;;;;;;5074524;28;20451;-59
2022/07/03 06:45:02;;;;;;;3.20;2.90;;;22.90;99.90;;;;;;5074436;28;20458;-59
2022/07/03 06:47:29;;;;;;;3.60;3.30;;;23.20;99.90;;;;;;5074237;28;20458;-59
2022/07/03 06:49:55;;;;;;;3.37;3.10;;;23.30;99.90;;;;;;5074388;28;20478;-59
2022/07/03 06:52:21;;;;;;;2.83;2.63;;;23.20;99.90;;;;;;5074669;28;20447;-58
2022/07/03 06:54:48;;;;;;;4.10;2.90;;;23.20;99.90;;;;;;5073962;28;20439;-59
2022/07/03 06:57:15;;;;;;;3.00;2.80;;;23.30;99.90;;;;;;5073979;28;20482;-59
2022/07/03 06:59:42;;;;;;;2.97;2.77;;;23.30;99.90;;;;;;5074171;28;20451;-59
2022/07/03 07:02:09;;;;;;;3.20;2.90;;;23.50;99.90;;;;;;5074046;28;20454;-58
2022/07/03 07:04:35;;;;;;;2.57;2.43;;;23.60;99.90;;;;;;5073957;28;20454;-59
2022/07/03 07:07:02;;;;;;;2.57;2.37;;;23.60;99.90;;;;;;5073944;28;20452;-58
2022/07/03 07:09:28;;;;;;;5.80;2.63;;;23.80;99.90;;;;;;5073753;28;20447;-59
2022/07/03 07:11:55;;;;;;;2.60;2.50;;;23.90;99.90;;;;;;5073866;28;20447;-57
2022/07/03 07:14:21;;;;;;;2.80;2.70;;;23.60;99.90;;;;;;5073845;28;20479;-59
2022/07/03 07:16:49;;;;;;;2.90;2.70;;;23.50;99.90;;;;;;5073556;28;20475;-57
2022/07/03 07:19:16;;;;;;;2.83;2.63;;;23.50;99.90;;;;;;5073740;28;20452;-59
2022/07/03 07:21:42;;;;;;;2.47;2.30;;;23.70;99.90;;;;;;5073520;28;20452;-59
2022/07/03 07:24:09;;;;;;;3.60;2.23;;;23.90;99.90;;;;;;5073891;28;20538;-58
2022/07/03 07:26:35;;;;;;;2.47;2.30;;;24.00;99.90;;;;;;5072365;28;21014;-59
2022/07/03 07:29:02;;;;;;;2.90;2.70;;;24.00;99.90;;;;;;5073516;28;20539;-58
2022/07/03 07:31:28;;;;;;;2.83;2.63;;;24.00;99.90;;;;;;5073582;28;20447;-57
2022/07/03 07:33:56;;;;;;;2.20;2.10;;;23.70;99.90;;;;;;5073451;28;20456;-58
2022/07/03 07:36:23;;;;;;;2.87;2.40;;;24.00;99.90;;;;;;5073239;28;20515;-58
2022/07/03 07:38:49;;;;;;;3.00;2.70;;;24.30;99.90;;;;;;5073815;28;20798;-59
2022/07/03 07:41:16;;;;;;;2.87;2.67;;;24.50;99.90;;;;;;5073391;28;20451;-59
2022/07/03 07:43:42;;;;;;;3.10;2.87;;;24.50;99.90;;;;;;5073660;28;20531;-58
2022/07/03 07:46:09;;;;;;;2.50;2.40;;;24.50;99.90;;;;;;5073318;28;20809;-58
2022/07/03 07:48:36;;;;;;;2.60;2.40;;;24.50;99.90;;;;;;5073204;28;20447;-58
2022/07/03 07:51:03;;;;;;;3.97;2.57;;;24.60;99.90;;;;;;5072976;28;20443;-58
2022/07/03 07:53:30;;;;;;;2.63;2.43;;;24.90;99.90;;;;;;5073335;28;20447;-59
2022/07/03 07:55:56;;;;;;;2.50;2.00;;;25.10;99.90;;;;;;5073069;28;20895;-59
2022/07/03 07:58:23;;;;;;;3.83;2.50;;;25.10;99.90;;;;;;5073176;28;20448;-57
2022/07/03 08:06:19;;;;;;;2.43;2.23;;;25.50;99.90;;;;;;5072893;28;20438;-57
2022/07/03 08:08:46;;;;;;;2.57;2.37;;;24.90;99.90;;;;;;5072894;28;20450;-58
2022/07/03 08:11:12;;;;;;;2.63;2.43;;;25.00;99.90;;;;;;5072934;28;20782;-58
2022/07/03 08:13:38;;;;;;;2.20;2.10;;;25.00;99.90;;;;;;5072855;28;20461;-57
2022/07/03 08:16:06;;;;;;;2.57;2.40;;;25.20;99.90;;;;;;5072701;28;20483;-57
2022/07/03 08:18:32;;;;;;;2.17;2.07;;;25.30;99.90;;;;;;5072989;28;20833;-58
2022/07/03 08:20:59;;;;;;;2.50;2.30;;;25.50;99.90;;;;;;5072933;28;20447;-58
2022/07/03 08:23:27;;;;;;;2.53;2.33;;;25.60;99.90;;;;;;5072943;28;20462;-58
2022/07/03 08:25:54;;;;;;;2.30;2.10;;;25.90;99.90;;;;;;5072728;28;20478;-59
2022/07/03 08:28:20;;;;;;;3.03;2.83;;;26.00;99.90;;;;;;5072738;28;20451;-60
2022/07/03 08:30:47;;;;;;;2.20;2.10;;;26.30;99.90;;;;;;5073016;28;20965;-58
2022/07/03 08:33:13;;;;;;;2.60;2.40;;;26.10;99.90;;;;;;5072842;28;20473;-58
2022/07/03 08:35:40;;;;;;;2.00;1.90;;;25.70;99.90;;;;;;5072718;28;20497;-58
2022/07/03 08:38:06;;;;;;;2.63;2.43;;;25.60;99.90;;;;;;5073397;28;20457;-57
2022/07/03 08:40:35;;;;;;;2.63;2.43;;;25.30;99.90;;;;;;5076576;28;20533;-57
2022/07/03 08:43:03;;;;;;;3.70;2.20;;;25.30;99.90;;;;;;5076626;28;20803;-58
2022/07/03 08:45:31;;;;;;;3.10;2.80;;;25.60;99.90;;;;;;5076482;28;20927;-58
2022/07/03 08:47:59;;;;;;;3.13;2.07;;;25.90;99.90;;;;;;5076712;28;20889;-58
2022/07/03 08:50:26;;;;;;;2.33;2.10;;;26.30;99.90;;;;;;5076626;28;20447;-58
2022/07/03 08:52:53;;;;;;;3.07;2.40;;;26.60;99.90;;;;;;5076752;28;20447;-57
2022/07/03 08:55:20;;;;;;;2.87;2.40;;;26.20;99.90;;;;;;5076043;28;20453;-58
2022/07/03 08:57:49;;;;;;;2.67;2.47;;;26.20;99.90;;;;;;5076302;28;20471;-58
2022/07/03 09:00:18;;;;;;;2.83;2.53;;;26.40;99.90;;;;;;5076432;28;20453;-58
2022/07/03 09:02:45;;;;;;;2.43;2.23;;;26.60;99.90;;;;;;5076255;28;20453;-57
2022/07/03 09:05:13;;;;;;;4.97;3.20;;;26.70;98.90;;;;;;5076177;28;20865;-58
2022/07/03 09:07:42;;;;;;;2.40;2.30;;;26.60;98.70;;;;;;5076192;28;20446;-58
2022/07/03 09:10:11;;;;;;;2.73;2.07;;;26.60;98.70;;;;;;5076197;28;20810;-58
2022/07/03 09:12:37;;;;;;;2.67;2.47;;;27.00;98.30;;;;;;5076258;28;20440;-59
2022/07/03 09:15:07;;;;;;;2.23;2.13;;;26.70;97.50;;;;;;5076074;28;20542;-59
2022/07/03 09:17:34;;;;;;;2.63;2.40;;;26.20;98.40;;;;;;5075988;28;20483;-58
2022/07/03 09:20:03;;;;;;;2.87;2.07;;;26.20;98.30;;;;;;5076307;28;20458;-58
2022/07/03 09:22:31;;;;;;;2.30;2.13;;;26.60;99.10;;;;;;5075845;28;20454;-57
2022/07/03 09:25:04;;;;;;;2.50;2.30;;;27.00;98.70;;;;;;5075838;28;20948;-59
2022/07/03 09:27:31;;;;;;;2.30;2.10;;;27.30;98.90;;;;;;5076104;28;20513;-58
2022/07/03 09:30:00;;;;;;;2.23;2.07;;;27.30;98.00;;;;;;5075861;28;20474;-58
2022/07/03 09:32:32;;;;;;;5.23;2.90;;;27.00;97.70;;;;;;5075664;28;20447;-58
2022/07/03 09:35:14;;;;;;;2.60;2.40;;;26.90;96.80;;;;;;5075793;28;20958;-58
2022/07/03 09:37:41;;;;;;;2.50;2.40;;;26.80;96.40;;;;;;5075788;28;20482;-59
2022/07/03 09:40:08;;;;;;;2.47;2.37;;;26.70;96.90;;;;;;5075659;28;20457;-57
2022/07/03 09:42:35;;;;;;;2.13;2.00;;;27.00;96.30;;;;;;5075665;28;20473;-58
2022/07/03 09:45:01;;;;;;;2.00;1.90;;;27.40;96.10;;;;;;5075499;28;20451;-58
2022/07/03 09:47:29;;;;;;;2.93;2.70;;;27.50;95.90;;;;;;5075008;28;20546;-59
2022/07/03 09:49:57;;;;;;;3.00;2.50;;;27.20;96.00;;;;;;5074560;28;20844;-58
2022/07/03 09:52:29;;;;;;;2.43;2.23;;;27.30;97.30;;;;;;5075224;28;20447;-59
2022/07/03 09:54:56;;;;;;;2.57;2.37;;;27.70;96.60;;;;;;5075232;28;20443;-58
2022/07/03 09:57:23;;;;;;;4.03;2.07;;;27.80;95.00;;;;;;5074971;28;20490;-58
2022/07/03 09:59:50;;;;;;;7.20;6.50;;;27.60;94.40;;;;;;5075324;28;20459;-58
2022/07/03 10:02:16;;;;;;;2.10;2.00;;;28.00;95.10;;;;;;5075223;28;20450;-58
2022/07/03 10:04:44;;;;;;;2.53;2.10;;;28.20;94.90;;;;;;5075233;28;20450;-59
2022/07/03 10:07:11;;;;;;;1.93;1.83;;;28.20;93.80;;;;;;5075154;28;20802;-58
2022/07/03 10:09:37;;;;;;;2.23;2.03;;;28.50;93.20;;;;;;5075137;28;20542;-58
2022/07/03 10:12:05;;;;;;;3.53;2.00;;;28.30;93.10;;;;;;5075042;28;20454;-59
2022/07/03 10:14:33;;;;;;;2.10;2.00;;;28.20;93.00;;;;;;5075046;28;20589;-60
2022/07/03 10:17:01;;;;;;;2.00;1.87;;;27.60;92.40;;;;;;5074671;28;20477;-58
2022/07/03 10:19:29;;;;;;;2.40;2.13;;;27.30;93.20;;;;;;5075033;28;20501;-59
2022/07/03 10:21:58;;;;;;;2.50;2.40;;;27.90;94.40;;;;;;5074905;28;20453;-58
2022/07/03 10:24:27;;;;;;;2.40;2.23;;;28.10;93.40;;;;;;5074706;28;20452;-58
2022/07/03 10:26:55;;;;;;;2.30;2.20;;;27.40;94.20;;;;;;5074970;28;20439;-58
2022/07/03 10:29:22;;;;;;;2.97;2.17;;;27.90;94.40;;;;;;5074660;28;20447;-58
2022/07/03 10:31:49;;;;;;;2.30;2.20;;;28.20;92.20;;;;;;5074824;28;20448;-59
2022/07/03 10:34:18;;;;;;;4.60;1.93;;;28.30;92.40;;;;;;5074661;28;20457;-58
2022/07/03 10:36:47;;;;;;;2.33;2.10;;;28.50;92.30;;;;;;5074364;28;20486;-59
2022/07/03 10:39:26;;;;;;;1.90;1.80;;;28.30;91.40;;;;;;5074837;28;20447;-58
2022/07/03 10:45:03;;;;;;;3.37;2.23;;;29.10;91.50;;;;;;5074656;28;20783;-59
2022/07/03 10:47:41;;;;;;;2.47;2.17;;;29.50;90.60;;;;;;5074354;28;20526;-58
2022/07/03 10:50:10;;;;;;;2.00;1.90;;;29.80;89.00;;;;;;5074055;28;20439;-59
2022/07/03 10:52:37;;;;;;;1.83;1.73;;;30.00;85.80;;;;;;5074299;28;20456;-60
2022/07/03 10:55:07;;;;;;;2.13;2.00;;;30.00;85.10;;;;;;5074206;28;20447;-58
2022/07/03 10:57:34;;;;;;;3.67;2.27;;;30.00;85.10;;;;;;5074024;28;20888;-58
2022/07/03 11:00:09;;;;;;;1.90;1.80;;;30.00;84.40;;;;;;5074121;28;20443;-58
2022/07/03 11:02:40;;;;;;;1.77;1.67;;;29.60;84.90;;;;;;5073935;28;20550;-59
2022/07/03 11:05:21;;;;;;;1.90;1.80;;;29.90;85.70;;;;;;5073973;28;20456;-57
2022/07/03 11:08:05;;;;;;;2.57;2.37;;;28.80;84.90;;;;;;5073883;28;20447;-58
2022/07/03 11:10:40;;;;;;;2.10;1.63;;;28.80;84.80;;;;;;5073851;28;20938;-58
2022/07/03 11:13:09;;;;;;;2.40;2.20;;;29.20;82.80;;;;;;5073702;28;20443;-56
2022/07/03 11:15:40;;;;;;;2.57;2.37;;;29.60;84.20;;;;;;5073791;28;20451;-56
2022/07/03 11:18:20;;;;;;;2.23;1.63;;;29.80;84.10;;;;;;5073760;28;20487;-56
2022/07/03 11:21:28;;;;;;;2.87;1.87;;;30.20;81.70;;;;;;5073597;28;20542;-57
2022/07/03 11:24:14;;;;;;;2.57;2.00;;;30.10;82.50;;;;;;5073703;28;20451;-57
2022/07/03 11:26:41;;;;;;;2.53;2.33;;;29.70;80.40;;;;;;5073603;28;20447;-58
2022/07/03 11:29:25;;;;;;;2.50;2.20;;;30.10;79.90;;;;;;5073464;28;20443;-57
2022/07/03 11:31:51;;;;;;;2.13;2.03;;;30.40;80.10;;;;;;5073312;28;20474;-57
2022/07/03 11:34:20;;;;;;;2.80;2.30;;;30.50;79.80;;;;;;5073450;28;20444;-58
2022/07/03 11:36:47;;;;;;;2.03;1.93;;;29.90;81.50;;;;;;5073145;28;20982;-56
2022/07/03 11:39:15;;;;;;;2.03;1.93;;;29.80;81.50;;;;;;5073195;28;20448;-57
2022/07/03 11:41:47;;;;;;;2.17;2.07;;;30.00;80.90;;;;;;5073496;28;20454;-57
2022/07/03 11:44:20;;;;;;;3.03;1.80;;;30.20;78.30;;;;;;5073123;28;20455;-58
2022/07/03 11:46:51;;;;;;;2.00;1.90;;;29.70;80.90;;;;;;5073270;28;20462;-57
2022/07/03 11:49:20;;;;;;;4.60;1.90;;;30.20;77.80;;;;;;5073193;28;20447;-57
2022/07/03 11:51:59;;;;;;;2.10;1.83;;;30.30;80.40;;;;;;5073170;28;20443;-56
2022/07/03 11:54:30;;;;;;;2.30;1.80;;;29.70;78.90;;;;;;5073134;28;20447;-57
2022/07/03 11:56:57;;;;;;;2.40;2.20;;;29.80;79.90;;;;;;5072730;28;20493;-57
2022/07/03 11:59:24;;;;;;;2.10;2.00;;;29.40;78.20;;;;;;5072986;28;20792;-58
2022/07/03 12:01:51;;;;;;;1.90;1.80;;;29.40;78.60;;;;;;5072931;28;20447;-57
2022/07/03 12:04:22;;;;;;;2.63;2.43;;;30.00;77.90;;;;;;5072734;28;20476;-57
2022/07/03 12:06:50;;;;;;;3.17;2.30;;;29.30;79.10;;;;;;5072766;28;20447;-56
2022/07/03 12:09:21;;;;;;;5.07;1.97;;;29.20;80.90;;;;;;5073043;28;20447;-56
2022/07/03 12:11:59;;;;;;;2.50;2.13;;;29.60;80.10;;;;;;5073212;28;20857;-58
2022/07/03 12:14:44;;;;;;;2.23;2.07;;;29.40;79.20;;;;;;5072435;28;20545;-57
2022/07/03 12:17:12;;;;;;;1.90;1.80;;;29.40;80.00;;;;;;5072876;28;20478;-58
2022/07/03 12:19:45;;;;;;;2.00;1.90;;;28.60;79.60;;;;;;5072816;28;20858;-58
2022/07/03 12:22:11;;;;;;;2.33;2.13;;;28.70;80.40;;;;;;5073151;28;20443;-56
2022/07/03 12:24:39;;;;;;;2.40;2.20;;;29.10;79.70;;;;;;5073072;28;20450;-58
2022/07/03 12:27:07;;;;;;;1.97;1.87;;;28.80;80.50;;;;;;5072808;28;20447;-58
2022/07/03 12:29:35;;;;;;;2.23;2.13;;;28.60;81.70;;;;;;5073090;28;20447;-58
2022/07/03 12:32:01;;;;;;;2.20;2.10;;;28.70;81.70;;;;;;5072720;28;20534;-59
2022/07/03 12:34:28;;;;;;;4.17;3.10;;;28.20;82.00;;;;;;5072982;28;20444;-58
2022/07/03 12:36:56;;;;;;;2.30;2.20;;;28.20;84.70;;;;;;5072792;28;20475;-58
2022/07/03 12:39:23;;;;;;;3.47;2.00;;;28.40;80.90;;;;;;5072933;28;20477;-57
2022/07/03 12:41:50;;;;;;;2.20;2.10;;;28.30;82.20;;;;;;5072681;28;20780;-59
2022/07/03 12:44:20;;;;;;;4.40;1.93;;;28.80;80.90;;;;;;5072624;28;20444;-59
2022/07/03 12:46:47;;;;;;;5.30;2.40;;;28.70;80.00;;;;;;5072659;28;20447;-58
2022/07/03 12:49:14;;;;;;;2.53;2.33;;;29.00;80.60;;;;;;5072574;28;20447;-58
2022/07/03 12:51:42;;;;;;;4.27;2.40;;;29.30;80.40;;;;;;5072471;28;20479;-58
2022/07/03 12:54:10;;;;;;;1.90;1.80;;;29.20;79.50;;;;;;5072605;28;20440;-59
2022/07/03 12:56:37;;;;;;;2.40;1.77;;;29.20;79.30;;;;;;5072333;28;20503;-58
2022/07/03 12:59:18;;;;;;;2.43;2.30;;;29.50;80.60;;;;;;5072432;28;20542;-57
2022/07/03 13:01:46;;;;;;;2.07;1.97;;;30.00;79.10;;;;;;5072680;28;20459;-57
2022/07/03 13:04:17;;;;;;;2.30;1.80;;;30.50;76.60;;;;;;5072602;28;20897;-56
2022/07/03 13:06:45;;;;;;;1.87;1.77;;;30.70;75.00;;;;;;5072505;28;20447;-57
2022/07/03 13:09:11;;;;;;;3.73;1.93;;;30.80;75.70;;;;;;5072348;28;20443;-56